createdAt,value
2022-10-05T00:00:10.500Z,7.87
2022-10-05T00:02:38.308Z,8.87
2022-10-05T00:05:13.323Z,8.17
2022-10-05T00:07:41.082Z,7.60
2022-10-05T00:10:12.071Z,8.07
2022-10-05T00:12:39.765Z,11.00
2022-10-05T00:15:10.679Z,8.43
2022-10-05T00:17:38.409Z,8.20
2022-10-05T00:20:26.179Z,7.57
2022-10-05T00:23:01.929Z,8.53
2022-10-05T00:25:29.639Z,8.07
2022-10-05T00:27:59.240Z,7.90
2022-10-05T00:30:32.132Z,8.50
2022-10-05T00:33:00.144Z,8.27
2022-10-05T00:35:30.323Z,7.57
2022-10-05T00:37:58.074Z,8.10
2022-10-05T00:40:52.050Z,8.50
2022-10-05T00:43:34.557Z,8.07
2022-10-05T00:46:27.131Z,7.53
2022-10-05T00:48:58.229Z,8.67
2022-10-05T00:51:28.343Z,8.00
2022-10-05T00:54:07.036Z,8.30
2022-10-05T00:56:44.139Z,8.80
2022-10-05T00:59:21.057Z,9.37
2022-10-05T01:02:02.743Z,8.83
2022-10-05T01:04:49.785Z,9.67
2022-10-05T01:07:23.447Z,9.60
2022-10-05T01:09:58.851Z,9.33
2022-10-05T01:12:39.283Z,9.47
2022-10-05T01:15:14.234Z,9.27
2022-10-05T01:17:57.712Z,9.30
2022-10-05T01:20:37.048Z,9.37
2022-10-05T01:23:28.920Z,8.80
2022-10-05T01:26:33.402Z,8.63
2022-10-05T01:29:19.098Z,8.03
2022-10-05T01:31:55.999Z,8.73
2022-10-05T01:34:23.701Z,8.00
2022-10-05T01:36:58.108Z,9.20
2022-10-05T01:39:28.549Z,8.70
2022-10-05T01:42:25.606Z,7.70
2022-10-05T01:44:53.268Z,7.60
2022-10-05T01:47:31.553Z,8.20
2022-10-05T01:50:01.672Z,8.60
2022-10-05T01:52:57.838Z,7.70
2022-10-05T01:56:07.016Z,8.17
2022-10-05T01:58:59.130Z,9.40
2022-10-05T02:01:44.653Z,8.73
2022-10-05T02:04:59.900Z,8.17
2022-10-05T02:07:22.196Z,8.33
2022-10-05T02:09:55.263Z,7.37
2022-10-05T02:12:23.483Z,9.43
2022-10-05T02:14:53.760Z,8.57
2022-10-05T02:17:25.899Z,8.67
2022-10-05T02:19:57.275Z,7.73
2022-10-05T02:22:31.980Z,8.90
2022-10-05T02:25:03.406Z,7.87
2022-10-05T02:27:32.936Z,7.40
2022-10-05T02:30:02.871Z,7.57
2022-10-05T02:32:34.501Z,7.03
2022-10-05T02:35:10.255Z,7.70
2022-10-05T02:37:57.058Z,8.30
2022-10-05T02:40:27.305Z,9.83
2022-10-05T02:43:07.001Z,9.50
2022-10-05T02:45:53.655Z,9.00
2022-10-05T02:48:36.422Z,8.53
2022-10-05T02:51:26.079Z,8.23
2022-10-05T02:54:23.586Z,8.30
2022-10-05T02:57:09.120Z,7.73
2022-10-05T02:59:46.869Z,7.40
2022-10-05T03:02:35.568Z,7.73
2022-10-05T03:05:23.396Z,7.40
2022-10-05T03:08:06.679Z,6.77
2022-10-05T03:11:05.325Z,6.60
2022-10-05T03:13:49.558Z,6.90
2022-10-05T03:16:35.729Z,6.27
2022-10-05T03:19:13.205Z,6.70
2022-10-05T03:21:43.952Z,7.27
2022-10-05T03:24:40.020Z,6.67
2022-10-05T03:27:16.885Z,6.37
2022-10-05T03:29:49.772Z,5.97
2022-10-05T03:32:31.603Z,6.80
2022-10-05T03:35:19.146Z,7.67
2022-10-05T03:37:55.638Z,6.50
2022-10-05T03:40:28.429Z,7.77
2022-10-05T03:43:02.074Z,7.33
2022-10-05T03:45:44.983Z,6.40
2022-10-05T03:48:15.835Z,6.97
2022-10-05T03:50:52.278Z,6.77
2022-10-05T03:53:21.545Z,6.50
2022-10-05T03:55:56.822Z,6.70
2022-10-05T03:58:50.499Z,6.97
2022-10-05T04:01:20.776Z,6.87
2022-10-05T04:03:51.238Z,5.93
2022-10-05T04:06:38.504Z,7.23
2022-10-05T04:09:14.214Z,6.63
2022-10-05T04:11:48.090Z,6.73
2022-10-05T04:14:18.480Z,8.37
2022-10-05T04:16:48.743Z,5.93
2022-10-05T04:19:17.153Z,6.47
2022-10-05T04:22:07.862Z,6.47
2022-10-05T04:24:54.361Z,6.20
2022-10-05T04:27:29.208Z,6.23
2022-10-05T04:30:03.198Z,6.63
2022-10-05T04:32:49.284Z,6.97
2022-10-05T04:35:35.384Z,6.63
2022-10-05T04:38:39.130Z,7.00
2022-10-05T04:41:21.921Z,7.03
2022-10-05T04:44:07.824Z,6.60
2022-10-05T04:46:54.551Z,7.00
2022-10-05T04:49:24.896Z,7.53
2022-10-05T04:52:30.370Z,6.50
2022-10-05T04:55:23.660Z,7.60
2022-10-05T04:57:57.914Z,6.93
2022-10-05T05:01:03.296Z,7.37
2022-10-05T05:03:52.182Z,7.43
2022-10-05T05:09:34.491Z,7.43
2022-10-05T05:12:09.115Z,7.23
2022-10-05T05:14:48.126Z,7.33
2022-10-05T05:17:19.157Z,7.87
2022-10-05T05:20:00.936Z,7.60
2022-10-05T05:22:52.013Z,7.87
2022-10-05T05:25:44.571Z,7.57
2022-10-05T05:28:21.491Z,7.90
2022-10-05T05:31:19.985Z,7.60
2022-10-05T05:34:13.000Z,7.10
2022-10-05T05:36:56.320Z,8.40
2022-10-05T05:39:34.567Z,7.33
2022-10-05T05:42:21.787Z,7.67
2022-10-05T05:44:52.085Z,8.03
2022-10-05T05:47:27.692Z,7.23
2022-10-05T05:50:19.765Z,6.60
2022-10-05T05:52:50.403Z,6.53
2022-10-05T05:55:30.310Z,6.60
2022-10-05T05:58:10.691Z,7.00
2022-10-05T06:00:52.039Z,6.57
2022-10-05T06:03:30.050Z,7.00
2022-10-05T06:06:00.444Z,6.90
2022-10-05T06:08:36.035Z,7.13
2022-10-05T06:11:10.143Z,7.00
2022-10-05T06:13:41.604Z,6.73
2022-10-05T06:16:30.033Z,7.07
2022-10-05T06:19:00.732Z,6.17
2022-10-05T06:21:51.421Z,7.40
2022-10-05T06:24:28.684Z,7.10
2022-10-05T06:27:21.762Z,6.77
2022-10-05T06:30:09.403Z,6.83
2022-10-05T06:33:05.059Z,7.03
2022-10-05T06:35:43.271Z,6.93
2022-10-05T06:38:34.142Z,7.10
2022-10-05T06:41:10.636Z,6.57
2022-10-05T06:43:53.317Z,6.50
2022-10-05T06:46:35.584Z,6.90
2022-10-05T06:49:22.577Z,6.70
2022-10-05T06:52:34.536Z,7.10
2022-10-05T06:55:14.406Z,7.03
2022-10-05T06:57:42.129Z,7.00
2022-10-05T07:00:22.782Z,8.03
2022-10-05T07:03:02.127Z,7.50
2022-10-05T07:05:56.497Z,5.63
2022-10-05T07:08:45.466Z,7.13
2022-10-05T07:11:44.268Z,6.07
2022-10-05T07:14:51.964Z,5.63
2022-10-05T07:17:26.537Z,6.27
2022-10-05T07:19:56.936Z,6.47
2022-10-05T07:22:47.757Z,6.57
2022-10-05T07:25:29.371Z,6.77
2022-10-05T07:28:12.246Z,7.33
2022-10-05T07:30:45.249Z,6.50
2022-10-05T07:33:20.644Z,6.73
2022-10-05T07:36:26.343Z,6.70
2022-10-05T07:39:14.061Z,7.30
2022-10-05T07:42:31.089Z,7.43
2022-10-05T07:45:15.460Z,7.37
2022-10-05T07:47:52.539Z,6.77
2022-10-05T07:50:27.135Z,6.77
2022-10-05T07:52:59.565Z,7.13
2022-10-05T07:55:28.461Z,7.47
2022-10-05T07:58:14.897Z,7.23
2022-10-05T08:00:48.485Z,6.73
2022-10-05T08:03:22.207Z,7.20
2022-10-05T08:05:50.065Z,7.33
2022-10-05T08:08:36.397Z,7.13
2022-10-05T08:11:18.774Z,7.43
2022-10-05T08:14:11.769Z,7.33
2022-10-05T08:16:39.660Z,8.57
2022-10-05T08:19:11.568Z,7.97
2022-10-05T08:21:51.454Z,7.47
2022-10-05T08:24:49.887Z,7.77
2022-10-05T08:27:20.498Z,7.50
2022-10-05T08:29:59.277Z,7.87
2022-10-05T08:32:30.028Z,8.60
2022-10-05T08:35:28.865Z,8.33
2022-10-05T08:37:56.644Z,8.03
2022-10-05T08:40:39.404Z,7.73
2022-10-05T08:43:25.830Z,8.13
2022-10-05T08:46:02.160Z,7.67
2022-10-05T08:49:00.779Z,8.33
2022-10-05T08:51:28.421Z,8.93
2022-10-05T08:54:31.560Z,7.43
2022-10-05T08:57:11.456Z,7.00
2022-10-05T08:59:57.448Z,7.73
2022-10-05T09:02:34.044Z,8.00
2022-10-05T09:05:23.292Z,7.90
2022-10-05T09:08:09.979Z,7.27
2022-10-05T09:11:00.521Z,8.27
2022-10-05T09:13:33.011Z,7.93
2022-10-05T09:16:12.961Z,8.63
2022-10-05T09:19:07.966Z,9.03
2022-10-05T09:21:43.210Z,9.00
2022-10-05T09:24:13.900Z,8.20
2022-10-05T09:27:03.095Z,8.30
2022-10-05T09:29:49.142Z,8.37
2022-10-05T09:32:36.873Z,8.00
2022-10-05T09:35:47.210Z,8.60
2022-10-05T09:38:22.043Z,8.03
2022-10-05T09:41:08.138Z,8.07
2022-10-05T09:43:41.420Z,7.47
2022-10-05T09:46:09.250Z,8.00
2022-10-05T09:48:46.168Z,7.30
2022-10-05T09:51:41.356Z,7.00
2022-10-05T09:54:54.063Z,6.82
2022-10-05T09:57:40.557Z,6.27
2022-10-05T10:00:16.400Z,6.80
2022-10-05T10:02:50.299Z,7.00
2022-10-05T10:05:32.542Z,7.40
2022-10-05T10:08:05.791Z,7.93
2022-10-05T10:10:45.702Z,7.30
2022-10-05T10:13:31.552Z,7.87
2022-10-05T10:16:27.019Z,7.43
2022-10-05T10:19:19.593Z,7.27
2022-10-05T10:22:05.583Z,7.33
2022-10-05T10:25:01.049Z,7.30
2022-10-05T10:27:48.051Z,6.80
2022-10-05T10:30:27.431Z,7.20
2022-10-05T10:32:55.701Z,6.87
2022-10-05T10:35:26.816Z,7.40
2022-10-05T10:38:30.410Z,6.47
2022-10-05T10:41:36.010Z,5.60
2022-10-05T10:44:19.013Z,6.03
2022-10-05T10:47:02.983Z,6.10
2022-10-05T10:49:51.901Z,6.67
2022-10-05T10:52:43.940Z,6.43
2022-10-05T10:55:32.799Z,6.32
2022-10-05T10:58:31.985Z,5.87
2022-10-05T11:01:21.359Z,5.70
2022-10-05T11:04:07.832Z,5.80
2022-10-05T11:06:53.372Z,6.43
2022-10-05T11:09:57.884Z,5.72
2022-10-05T11:12:56.123Z,6.60
2022-10-05T11:15:51.857Z,6.68
2022-10-05T11:18:36.419Z,6.50
2022-10-05T11:21:31.515Z,6.45
2022-10-05T11:24:41.289Z,6.07
2022-10-05T11:27:56.874Z,6.00
2022-10-05T11:31:01.367Z,6.47
2022-10-05T11:33:44.473Z,6.65
2022-10-05T11:36:27.178Z,5.95
2022-10-05T11:39:06.882Z,6.70
2022-10-05T11:42:12.951Z,6.40
2022-10-05T11:44:45.949Z,6.50
2022-10-05T11:47:19.809Z,6.12
2022-10-05T11:49:57.241Z,5.93
2022-10-05T11:52:41.681Z,6.87
2022-10-05T11:55:18.270Z,6.05
2022-10-05T11:57:57.013Z,7.12
2022-10-05T12:00:27.953Z,7.07
2022-10-05T12:03:10.809Z,6.43
2022-10-05T12:05:44.788Z,6.72
2022-10-05T12:08:27.786Z,6.62
2022-10-05T12:11:39.481Z,7.62
2022-10-05T12:14:13.346Z,6.30
2022-10-05T12:16:51.071Z,5.85
2022-10-05T12:19:45.515Z,5.37
2022-10-05T12:22:26.321Z,5.78
2022-10-05T12:25:17.275Z,5.65
2022-10-05T12:27:47.439Z,5.72
2022-10-05T12:30:19.367Z,5.75
2022-10-05T12:33:10.316Z,4.50
2022-10-05T12:35:48.477Z,4.40
2022-10-05T12:38:29.582Z,4.87
2022-10-05T12:41:06.385Z,3.97
2022-10-05T12:43:52.425Z,4.87
2022-10-05T12:46:20.053Z,4.10
2022-10-05T12:48:59.859Z,4.62
2022-10-05T12:51:44.600Z,3.80
2022-10-05T12:54:19.053Z,3.90
2022-10-05T12:56:58.767Z,3.30
2022-10-05T12:59:32.376Z,4.10
2022-10-05T13:02:31.897Z,4.20
2022-10-05T13:05:11.858Z,3.62
2022-10-05T13:08:18.899Z,4.00
2022-10-05T13:11:22.094Z,3.58
2022-10-05T13:14:03.751Z,3.72
2022-10-05T13:16:54.919Z,4.20
2022-10-05T13:19:52.057Z,4.20
2022-10-05T13:22:35.671Z,4.03
2022-10-05T13:25:16.129Z,3.65
2022-10-05T13:27:48.349Z,4.45
2022-10-05T13:30:17.905Z,3.80
2022-10-05T13:32:59.441Z,3.87
2022-10-05T13:35:51.441Z,4.25
2022-10-05T13:38:58.240Z,5.87
2022-10-05T13:41:57.036Z,5.20
2022-10-05T13:44:35.483Z,5.57
2022-10-05T13:47:17.929Z,4.90
2022-10-05T13:50:28.472Z,5.35
2022-10-05T13:53:17.082Z,4.07
2022-10-05T13:55:47.274Z,3.72
2022-10-05T13:58:27.753Z,4.25
2022-10-05T14:01:01.424Z,3.70
2022-10-05T14:03:36.935Z,3.58
2022-10-05T14:06:15.203Z,3.87
2022-10-05T14:08:55.232Z,2.87
2022-10-05T14:11:28.320Z,3.10
2022-10-05T14:14:02.813Z,3.08
2022-10-05T14:16:32.452Z,2.33
2022-10-05T14:19:06.192Z,3.10
2022-10-05T14:21:43.701Z,3.08
2022-10-05T14:24:46.394Z,3.22
2022-10-05T14:27:31.684Z,2.85
2022-10-05T14:30:01.598Z,2.70
2022-10-05T14:32:34.601Z,2.70
2022-10-05T14:35:11.661Z,2.87
2022-10-05T14:37:57.528Z,2.53
2022-10-05T14:40:25.431Z,2.67
2022-10-05T14:42:53.335Z,2.50
2022-10-05T14:45:22.273Z,2.30
2022-10-05T14:48:07.380Z,2.33
2022-10-05T14:50:35.079Z,2.90
2022-10-05T14:53:19.982Z,2.80
2022-10-05T14:56:12.843Z,2.47
2022-10-05T14:59:15.187Z,2.30
2022-10-05T15:02:27.955Z,2.58
2022-10-05T15:05:02.068Z,2.12
2022-10-05T15:07:32.343Z,2.28
2022-10-05T15:10:03.123Z,2.20
2022-10-05T15:12:33.517Z,2.35
2022-10-05T15:15:26.771Z,2.58
2022-10-05T15:18:17.149Z,2.50
2022-10-05T15:21:24.930Z,2.80
2022-10-05T15:24:18.493Z,2.60
2022-10-05T15:27:05.259Z,2.58
2022-10-05T15:29:44.320Z,2.70
2022-10-05T15:32:20.236Z,2.47
2022-10-05T15:35:25.877Z,2.20
2022-10-05T15:38:00.938Z,2.35
2022-10-05T15:40:35.786Z,2.65
2022-10-05T15:43:20.994Z,2.60
2022-10-05T15:46:02.727Z,2.40
2022-10-05T15:48:41.311Z,2.28
2022-10-05T15:51:30.969Z,2.53
2022-10-05T15:54:42.854Z,3.00
2022-10-05T15:57:22.344Z,2.58
2022-10-05T16:00:15.209Z,2.35
2022-10-05T16:02:43.093Z,2.67
2022-10-05T16:05:57.333Z,2.60
2022-10-05T16:08:57.153Z,2.85
2022-10-05T16:11:41.846Z,2.53
2022-10-05T16:14:29.097Z,2.72
2022-10-05T16:16:59.739Z,3.20
2022-10-05T16:20:21.850Z,2.40
2022-10-05T16:23:16.585Z,3.40
2022-10-05T16:26:15.773Z,3.12
2022-10-05T16:28:46.310Z,3.55
2022-10-05T16:31:35.879Z,3.70
2022-10-05T16:34:18.803Z,3.60
2022-10-05T16:37:14.359Z,3.53
2022-10-05T16:39:51.167Z,3.47
2022-10-05T16:42:35.910Z,3.40
2022-10-05T16:45:22.515Z,4.00
2022-10-05T16:48:17.806Z,3.72
2022-10-05T16:51:14.498Z,3.58
2022-10-05T16:53:55.422Z,4.05
2022-10-05T16:56:26.278Z,3.50
2022-10-05T16:59:15.418Z,3.87
2022-10-05T17:02:06.667Z,4.93
2022-10-05T17:04:57.845Z,5.45
2022-10-05T17:08:03.996Z,5.00
2022-10-05T17:11:03.996Z,4.72
2022-10-05T17:13:40.792Z,4.40
2022-10-05T17:16:16.325Z,4.80
2022-10-05T17:19:02.204Z,4.75
2022-10-05T17:21:38.558Z,4.55
2022-10-05T17:24:12.379Z,5.65
2022-10-05T17:27:21.829Z,4.97
2022-10-05T17:29:56.755Z,4.40
2022-10-05T17:32:24.394Z,4.85
2022-10-05T17:35:04.087Z,4.70
2022-10-05T17:37:32.938Z,4.80
2022-10-05T17:40:02.880Z,6.20
2022-10-05T17:42:30.597Z,7.80
2022-10-05T17:45:22.282Z,7.75
2022-10-05T17:48:06.398Z,5.25
2022-10-05T17:51:06.714Z,6.15
2022-10-05T17:53:59.772Z,8.18
2022-10-05T17:56:27.983Z,5.68
2022-10-05T17:58:55.872Z,5.55
2022-10-05T18:01:39.781Z,6.28
2022-10-05T18:04:13.638Z,13.65
2022-10-05T18:06:53.790Z,7.97
2022-10-05T18:09:24.480Z,8.23
2022-10-05T18:12:19.216Z,7.18
2022-10-05T18:14:59.471Z,8.55
2022-10-05T18:17:54.130Z,8.10
2022-10-05T18:20:33.433Z,12.32
2022-10-05T18:23:03.968Z,9.80
2022-10-05T18:25:50.705Z,8.93
2022-10-05T18:28:20.384Z,8.73
2022-10-05T18:31:16.777Z,10.52
2022-10-05T18:33:50.566Z,9.30
2022-10-05T18:36:55.488Z,12.45
2022-10-05T18:39:46.057Z,8.27
2022-10-05T18:42:46.010Z,11.48
2022-10-05T18:45:19.507Z,11.40
2022-10-05T18:48:15.395Z,10.10
2022-10-05T18:51:13.765Z,8.98
2022-10-05T18:54:02.913Z,10.45
2022-10-05T18:56:43.586Z,11.15
2022-10-05T18:59:25.249Z,12.77
2022-10-05T19:02:12.187Z,10.00
2022-10-05T19:05:04.810Z,9.30
2022-10-05T19:07:50.939Z,8.68
2022-10-05T19:10:22.069Z,8.50
2022-10-05T19:13:14.063Z,8.30
2022-10-05T19:15:55.819Z,8.52
2022-10-05T19:18:42.579Z,8.18
2022-10-05T19:21:18.136Z,8.50
2022-10-05T19:24:29.836Z,8.95
2022-10-05T19:27:18.863Z,7.30
2022-10-05T19:29:52.541Z,7.40
2022-10-05T19:32:42.749Z,8.15
2022-10-05T19:35:26.668Z,8.02
2022-10-05T19:38:01.793Z,7.75
2022-10-05T19:40:43.344Z,8.00
2022-10-05T19:43:27.340Z,12.32
2022-10-05T19:46:00.212Z,8.60
2022-10-05T19:48:45.628Z,10.05
2022-10-05T19:51:17.177Z,7.60
2022-10-05T19:53:47.976Z,7.25
2022-10-05T19:56:35.386Z,7.60
2022-10-05T19:59:14.352Z,7.75
2022-10-05T20:01:44.797Z,6.85
2022-10-05T20:04:12.667Z,7.40
2022-10-05T20:06:40.842Z,7.32
2022-10-05T20:09:22.367Z,7.45
2022-10-05T20:11:51.927Z,8.25
2022-10-05T20:14:32.533Z,7.07
2022-10-05T20:17:45.515Z,6.57
2022-10-05T20:20:35.156Z,7.30
2022-10-05T20:23:31.545Z,6.90
2022-10-05T20:26:17.739Z,7.20
2022-10-05T20:28:45.700Z,4.85
2022-10-05T20:31:15.496Z,6.00
2022-10-05T20:33:43.296Z,8.38
2022-10-05T20:36:11.062Z,8.32
2022-10-05T20:38:41.198Z,5.53
2022-10-05T20:41:09.355Z,10.30
2022-10-05T20:43:40.111Z,5.35
2022-10-05T20:46:08.653Z,5.57
2022-10-05T20:48:37.343Z,4.87
2022-10-05T20:51:05.410Z,4.72
2022-10-05T20:53:33.293Z,5.03
2022-10-05T20:56:03.622Z,4.75
2022-10-05T20:58:31.710Z,4.78
2022-10-05T21:01:19.508Z,5.15
2022-10-05T21:03:47.807Z,4.78
2022-10-05T21:06:15.640Z,5.90
2022-10-05T21:08:43.545Z,6.35
2022-10-05T21:11:11.425Z,5.95
2022-10-05T21:13:43.609Z,8.30
2022-10-05T21:16:15.262Z,5.65
2022-10-05T21:18:43.755Z,5.33
2022-10-05T21:21:12.166Z,5.28
2022-10-05T21:23:40.020Z,5.27
2022-10-05T21:26:09.166Z,4.82
2022-10-05T21:28:37.106Z,5.40
2022-10-05T21:31:04.955Z,4.90
2022-10-05T21:33:32.880Z,5.10
2022-10-05T21:36:03.133Z,5.32
2022-10-05T21:38:31.262Z,4.78
2022-10-05T21:40:59.246Z,5.50
2022-10-05T21:43:29.182Z,5.37
2022-10-05T21:45:57.553Z,5.60
2022-10-05T21:48:26.195Z,5.45
2022-10-05T21:50:54.554Z,5.57
2022-10-05T21:53:24.553Z,5.00
2022-10-05T21:55:52.549Z,5.47
2022-10-05T21:58:20.815Z,5.60
2022-10-05T22:00:48.603Z,4.90
2022-10-05T22:03:16.580Z,5.23
2022-10-05T22:05:44.606Z,6.10
2022-10-05T22:08:31.690Z,5.05
2022-10-05T22:11:02.832Z,4.78
2022-10-05T22:13:30.647Z,4.45
2022-10-05T22:15:58.846Z,4.70
2022-10-05T22:18:27.961Z,5.03
2022-10-05T22:20:55.774Z,4.60
2022-10-05T22:23:23.546Z,5.30
2022-10-05T22:25:51.271Z,5.28
2022-10-05T22:28:19.056Z,4.67
2022-10-05T22:30:47.258Z,5.20
2022-10-05T22:33:15.186Z,4.97
2022-10-05T22:35:42.859Z,5.37
2022-10-05T22:38:10.599Z,5.33
2022-10-05T22:40:38.457Z,5.00
2022-10-05T22:43:06.209Z,4.93
2022-10-05T22:45:34.009Z,4.80
2022-10-05T22:48:01.986Z,5.00
2022-10-05T22:50:29.832Z,4.73
2022-10-05T22:52:57.869Z,4.45
2022-10-05T22:55:26.264Z,5.00
2022-10-05T22:57:53.972Z,4.63
2022-10-05T23:00:27.589Z,4.73
2022-10-05T23:02:59.147Z,4.50
2022-10-05T23:05:26.939Z,4.70
2022-10-05T23:07:54.682Z,4.57
2022-10-05T23:10:22.451Z,4.50
2022-10-05T23:13:00.740Z,5.10
2022-10-05T23:15:29.056Z,4.80
2022-10-05T23:17:58.500Z,4.30
2022-10-05T23:20:27.113Z,4.40
2022-10-05T23:22:54.893Z,5.17
2022-10-05T23:25:23.383Z,5.13
2022-10-05T23:27:51.183Z,4.77
2022-10-05T23:30:19.048Z,4.57
2022-10-05T23:32:46.851Z,4.40
2022-10-05T23:35:14.753Z,4.63
2022-10-05T23:37:43.917Z,4.60
2022-10-05T23:40:13.346Z,3.83
2022-10-05T23:42:41.655Z,4.63
2022-10-05T23:45:10.750Z,3.83
2022-10-05T23:47:38.977Z,4.07
2022-10-05T23:50:08.090Z,4.30
2022-10-05T23:52:36.677Z,4.23
2022-10-05T23:55:05.581Z,3.93
2022-10-05T23:57:33.390Z,4.40
